Time;durP1;ratioP1;P1;durP2;ratioP2;P2;SDS_P1;SDS_P2;PMS_P1;PMS_P2;Temp;Humidity;BMP_temperature;BMP_pressure;BME280_temperature;BME280_humidity;BME280_pressure;Samples;Min_cycle;Max_cycle;Signal;HPM_P1;HPM_P2
2022/01/15 00:02:03;;;;;;;1.10;0.60;;;18.50;52.20;;;;;;5113476;28;20223;-83
2022/01/15 00:04:28;;;;;;;0.82;0.60;;;18.50;53.00;;;;;;5095509;28;20206;-81
2022/01/15 00:06:54;;;;;;;2.00;0.60;;;18.60;52.40;;;;;;5078403;28;20195;-82
2022/01/15 00:09:20;;;;;;;0.95;0.82;;;18.50;52.40;;;;;;5095479;28;20156;-81
2022/01/15 00:11:45;;;;;;;0.95;0.60;;;18.40;52.10;;;;;;5095509;28;20201;-80
2022/01/15 00:14:14;;;;;;;0.98;0.55;;;18.50;52.10;;;;;;5078469;28;20156;-81
2022/01/15 00:19:31;;;;;;;0.68;0.60;;;18.50;52.50;;;;;;5113536;28;20201;-81
2022/01/15 00:21:56;;;;;;;0.50;0.50;;;18.40;52.30;;;;;;5100502;28;20590;-81
2022/01/15 00:24:24;;;;;;;1.70;0.70;;;18.50;52.30;;;;;;5082533;28;20196;-81
2022/01/15 00:26:50;;;;;;;2.42;0.70;;;18.40;52.40;;;;;;5099283;28;20587;-81
2022/01/15 00:29:15;;;;;;;1.45;0.80;;;18.40;52.30;;;;;;5099531;28;20149;-81
2022/01/15 00:31:41;;;;;;;2.17;0.60;;;18.50;52.30;;;;;;5117516;28;20159;-81
2022/01/15 00:34:06;;;;;;;2.28;0.63;;;18.50;52.40;;;;;;5082416;28;20148;-81
2022/01/15 00:36:32;;;;;;;0.90;0.60;;;18.40;52.40;;;;;;5082271;28;20160;-81
2022/01/15 00:38:58;;;;;;;0.73;0.60;;;18.40;52.50;;;;;;5117704;28;20171;-81
2022/01/15 00:41:23;;;;;;;1.48;0.80;;;18.40;52.40;;;;;;5117319;28;20274;-81
2022/01/15 00:43:49;;;;;;;0.75;0.60;;;18.40;52.30;;;;;;5099270;28;20160;-81
2022/01/15 00:46:15;;;;;;;1.00;0.60;;;18.40;52.30;;;;;;5099077;28;20203;-81
2022/01/15 00:48:40;;;;;;;0.40;0.40;;;18.40;52.40;;;;;;5099089;28;20156;-82
2022/01/15 00:51:06;;;;;;;0.85;0.55;;;18.40;52.30;;;;;;5098976;28;20542;-81
2022/01/15 00:53:32;;;;;;;1.02;0.60;;;18.50;52.30;;;;;;5098944;28;20157;-81
2022/01/15 00:55:57;;;;;;;0.70;0.57;;;18.50;52.40;;;;;;5098852;28;20160;-81
2022/01/15 00:58:23;;;;;;;1.25;0.70;;;18.50;52.40;;;;;;5116972;28;20171;-81
2022/01/15 01:00:48;;;;;;;3.00;0.50;;;18.50;52.50;;;;;;5117048;28;20219;-81
2022/01/15 01:03:14;;;;;;;1.65;0.60;;;18.40;52.40;;;;;;5098954;28;20648;-81
2022/01/15 01:05:40;;;;;;;1.42;0.63;;;18.40;52.50;;;;;;5098698;28;20160;-81
2022/01/15 01:08:05;;;;;;;1.00;0.70;;;18.40;52.40;;;;;;5098636;28;20171;-81
2022/01/15 01:13:31;;;;;;;1.08;0.57;;;18.40;52.40;;;;;;5116618;28;20482;-81
2022/01/15 01:20:05;;;;;;;0.80;0.60;;;18.40;52.40;;;;;;5101252;28;20179;-82
2022/01/15 01:24:13;;;;;;;2.50;0.73;;;18.40;52.60;;;;;;5101946;28;20170;-81
2022/01/15 01:26:58;;;;;;;0.90;0.55;;;18.40;52.50;;;;;;5100971;28;20183;-80
2022/01/15 01:34:44;;;;;;;0.95;0.55;;;18.40;52.50;;;;;;5101870;28;20231;-81
2022/01/15 01:37:16;;;;;;;1.40;0.57;;;18.40;52.40;;;;;;5117772;28;20172;-81
2022/01/15 01:39:46;;;;;;;1.92;0.95;;;18.40;52.40;;;;;;5099954;28;20156;-81
2022/01/15 01:42:38;;;;;;;1.27;0.70;;;18.40;52.40;;;;;;5116112;28;20239;-82
2022/01/15 01:45:05;;;;;;;1.70;0.70;;;18.40;52.50;;;;;;5116158;28;20222;-82
2022/01/15 01:47:39;;;;;;;0.75;0.70;;;18.40;52.50;;;;;;5116017;28;20184;-82
2022/01/15 01:50:10;;;;;;;1.08;0.70;;;18.30;52.50;;;;;;5116012;28;20151;-82
2022/01/15 01:52:36;;;;;;;1.10;0.70;;;18.40;52.50;;;;;;5081188;28;20172;-82
2022/01/15 01:55:01;;;;;;;0.95;0.60;;;18.40;52.30;;;;;;5097802;28;20196;-82
2022/01/15 01:57:27;;;;;;;1.35;0.70;;;18.40;52.50;;;;;;5097763;28;20511;-82
2022/01/15 01:59:53;;;;;;;0.52;0.50;;;18.40;52.30;;;;;;5117184;27;20164;-82
2022/01/15 02:02:18;;;;;;;1.13;0.70;;;18.30;52.50;;;;;;5118055;27;20527;-82
2022/01/15 02:04:44;;;;;;;1.63;0.70;;;18.30;52.40;;;;;;5118018;27;20202;-82
2022/01/15 02:07:09;;;;;;;1.35;0.63;;;18.30;52.50;;;;;;5117826;27;20190;-82
2022/01/15 02:09:35;;;;;;;0.93;0.60;;;18.40;52.30;;;;;;5136295;27;20160;-82
2022/01/15 02:12:01;;;;;;;0.82;0.50;;;18.40;52.50;;;;;;5100773;27;20164;-82
2022/01/15 02:14:28;;;;;;;0.68;0.60;;;18.40;52.50;;;;;;5117727;27;20152;-82
2022/01/15 02:16:54;;;;;;;0.85;0.60;;;18.30;52.70;;;;;;5117903;27;20151;-81
2022/01/15 02:19:20;;;;;;;1.38;0.70;;;18.30;52.50;;;;;;5100597;27;20688;-81
2022/01/15 02:24:20;;;;;;;0.93;0.80;;;18.30;52.60;;;;;;5118846;27;20201;-81
2022/01/15 02:26:46;;;;;;;1.10;0.47;;;18.30;52.70;;;;;;5135814;27;20191;-82
2022/01/15 02:29:12;;;;;;;0.63;0.60;;;18.40;52.70;;;;;;5117498;27;20201;-82
2022/01/15 02:31:38;;;;;;;0.50;0.50;;;18.30;52.40;;;;;;5135969;27;20147;-82
2022/01/15 02:34:04;;;;;;;0.82;0.50;;;18.30;52.60;;;;;;5135730;27;20234;-81
2022/01/15 02:36:32;;;;;;;0.50;0.50;;;18.30;52.50;;;;;;5117417;27;20186;-81
2022/01/15 02:38:58;;;;;;;1.10;0.60;;;18.30;52.40;;;;;;5100635;27;20148;-81
2022/01/15 02:41:32;;;;;;;0.68;0.50;;;18.40;52.40;;;;;;5117283;27;20257;-82
2022/01/15 02:43:58;;;;;;;1.30;0.60;;;18.30;52.50;;;;;;5116873;27;20162;-81
2022/01/15 02:48:00;;;;;;;2.35;0.70;;;18.30;52.50;;;;;;5117133;27;20191;-81
2022/01/15 02:49:10;;;;;;;2.33;0.60;;;18.30;52.60;;;;;;5135226;27;20163;-82
2022/01/15 02:51:36;;;;;;;0.82;0.57;;;18.30;52.40;;;;;;5117060;27;20156;-82
2022/01/15 02:54:02;;;;;;;0.60;0.50;;;18.30;52.60;;;;;;5100132;27;20196;-82
2022/01/15 02:56:31;;;;;;;0.88;0.60;;;18.30;52.80;;;;;;5117204;27;20174;-82
2022/01/15 02:58:57;;;;;;;1.00;0.68;;;18.30;52.50;;;;;;5117304;27;20505;-81
2022/01/15 03:01:22;;;;;;;0.60;0.60;;;18.30;52.60;;;;;;5085860;28;20219;-81
2022/01/15 03:03:49;;;;;;;0.82;0.50;;;18.30;52.50;;;;;;5079634;28;20191;-81
2022/01/15 03:06:16;;;;;;;1.15;0.70;;;18.30;52.50;;;;;;5114741;28;20187;-82
2022/01/15 03:08:42;;;;;;;0.95;0.70;;;18.30;52.40;;;;;;5096446;28;20192;-81
2022/01/15 03:11:08;;;;;;;0.85;0.50;;;18.20;52.30;;;;;;5096442;28;20148;-82
2022/01/15 03:13:35;;;;;;;0.70;0.60;;;18.40;52.20;;;;;;5079370;28;20587;-81
2022/01/15 03:16:01;;;;;;;0.77;0.60;;;18.20;52.40;;;;;;5096185;28;20160;-82
2022/01/15 03:18:26;;;;;;;0.98;0.60;;;18.30;52.50;;;;;;5079227;28;20616;-81
2022/01/15 03:20:52;;;;;;;0.90;0.60;;;18.30;52.30;;;;;;5079026;28;20168;-81
2022/01/15 03:23:17;;;;;;;2.63;0.60;;;18.30;52.40;;;;;;5096051;28;20231;-81
2022/01/15 03:25:43;;;;;;;1.35;0.50;;;18.30;52.30;;;;;;5096040;28;20164;-81
2022/01/15 03:28:09;;;;;;;0.85;0.52;;;18.20;52.60;;;;;;5079185;28;20225;-82
2022/01/15 03:30:35;;;;;;;1.35;0.70;;;18.30;52.50;;;;;;5078993;28;20166;-82
2022/01/15 03:33:00;;;;;;;1.30;0.50;;;18.30;52.50;;;;;;5095975;28;20235;-82
2022/01/15 03:35:26;;;;;;;0.38;0.38;;;18.30;52.70;;;;;;5095903;28;20628;-82
2022/01/15 03:37:51;;;;;;;0.88;0.60;;;18.30;52.20;;;;;;5095894;28;20152;-82
2022/01/15 03:40:17;;;;;;;0.85;0.60;;;18.30;52.40;;;;;;5113967;28;20243;-82
2022/01/15 03:42:43;;;;;;;0.85;0.50;;;18.20;52.50;;;;;;5095601;28;20187;-82
2022/01/15 03:45:10;;;;;;;1.60;0.60;;;18.30;52.90;;;;;;5095739;28;20562;-82
2022/01/15 03:47:36;;;;;;;0.40;0.40;;;18.20;52.40;;;;;;5095694;28;20713;-82
2022/01/15 03:50:01;;;;;;;0.60;0.60;;;18.20;52.30;;;;;;5095847;28;20156;-82
2022/01/15 03:52:27;;;;;;;1.42;0.70;;;18.20;52.50;;;;;;5095772;28;20159;-82
2022/01/15 03:54:53;;;;;;;1.45;0.50;;;18.20;52.50;;;;;;5095067;28;20156;-82
2022/01/15 03:57:18;;;;;;;1.90;0.70;;;18.20;52.60;;;;;;5095803;28;20163;-81
2022/01/15 03:59:44;;;;;;;0.73;0.65;;;18.20;52.30;;;;;;5095684;28;20164;-82
2022/01/15 04:02:09;;;;;;;1.38;0.50;;;18.30;52.40;;;;;;5096115;28;20164;-81
2022/01/15 04:04:35;;;;;;;1.52;0.50;;;18.30;52.10;;;;;;5096385;28;20179;-81
2022/01/15 04:07:01;;;;;;;0.75;0.60;;;18.30;52.20;;;;;;5114014;28;20642;-81
2022/01/15 04:09:27;;;;;;;0.77;0.50;;;18.30;52.10;;;;;;5062280;28;20175;-81
2022/01/15 04:11:52;;;;;;;1.00;0.50;;;18.30;52.40;;;;;;5114639;28;20156;-82
2022/01/15 04:14:18;;;;;;;1.17;0.60;;;18.30;52.20;;;;;;5115625;28;20148;-81
2022/01/15 04:16:43;;;;;;;1.02;0.65;;;18.30;52.30;;;;;;5115375;28;20172;-82
2022/01/15 04:19:09;;;;;;;0.98;0.68;;;18.20;52.40;;;;;;5079636;28;20152;-81
2022/01/15 04:21:35;;;;;;;1.33;0.75;;;18.20;52.30;;;;;;5097081;28;20542;-81
2022/01/15 04:24:01;;;;;;;0.70;0.50;;;18.20;52.20;;;;;;5096822;28;20170;-81
2022/01/15 04:26:27;;;;;;;1.15;0.63;;;18.30;52.30;;;;;;5095969;28;20188;-81
2022/01/15 04:28:54;;;;;;;0.70;0.68;;;18.20;52.10;;;;;;5095326;28;20182;-81
2022/01/15 04:31:19;;;;;;;0.68;0.40;;;18.20;52.50;;;;;;5078544;28;20239;-81
2022/01/15 04:33:45;;;;;;;0.80;0.55;;;18.30;52.30;;;;;;5113300;28;20248;-82
2022/01/15 04:36:11;;;;;;;0.68;0.50;;;18.20;52.30;;;;;;5113202;28;20174;-81
2022/01/15 04:38:38;;;;;;;0.50;0.40;;;18.20;52.30;;;;;;5061550;28;20164;-82
2022/01/15 04:41:04;;;;;;;0.85;0.60;;;18.20;52.20;;;;;;5078713;28;20525;-82
2022/01/15 04:43:30;;;;;;;1.17;0.50;;;18.30;52.30;;;;;;5095147;28;20587;-81
2022/01/15 04:45:56;;;;;;;0.93;0.50;;;18.30;52.30;;;;;;5094980;28;20266;-81
2022/01/15 04:48:21;;;;;;;1.60;0.75;;;18.30;52.30;;;;;;5078344;28;20680;-82
2022/01/15 04:50:47;;;;;;;0.70;0.60;;;18.20;52.30;;;;;;5078358;28;20153;-81
2022/01/15 04:53:12;;;;;;;0.50;0.50;;;18.20;52.60;;;;;;5095122;28;20160;-82
2022/01/15 04:55:38;;;;;;;0.85;0.57;;;18.30;52.30;;;;;;5094863;28;20178;-81
2022/01/15 04:58:04;;;;;;;1.20;0.68;;;18.20;52.20;;;;;;5078111;28;20156;-81
2022/01/15 05:00:30;;;;;;;0.88;0.70;;;18.30;52.50;;;;;;5084909;28;20213;-82
2022/01/15 05:02:57;;;;;;;1.13;0.60;;;18.20;52.40;;;;;;5098317;28;20230;-81
2022/01/15 05:05:23;;;;;;;0.88;0.60;;;18.20;52.20;;;;;;5115542;28;20155;-82
2022/01/15 05:07:52;;;;;;;0.52;0.45;;;18.20;52.20;;;;;;5118195;27;20228;-81
2022/01/15 05:10:19;;;;;;;1.05;0.52;;;18.30;52.20;;;;;;5119493;27;20151;-81
2022/01/15 05:12:47;;;;;;;0.75;0.50;;;18.30;52.20;;;;;;5118997;27;20204;-81
2022/01/15 05:15:13;;;;;;;1.50;0.65;;;18.20;52.10;;;;;;5102530;27;20201;-81
2022/01/15 05:17:39;;;;;;;1.17;0.60;;;18.20;52.40;;;;;;5118956;27;20167;-81
2022/01/15 05:20:06;;;;;;;0.98;0.50;;;18.30;52.10;;;;;;5101788;27;20151;-81
2022/01/15 05:22:33;;;;;;;2.08;0.82;;;18.20;52.40;;;;;;5119238;27;20205;-81
2022/01/15 05:24:58;;;;;;;0.90;0.50;;;18.20;52.70;;;;;;5102098;27;20221;-81
2022/01/15 05:27:24;;;;;;;1.55;0.80;;;18.20;52.50;;;;;;5137241;27;20200;-81
2022/01/15 05:29:50;;;;;;;0.80;0.60;;;18.10;52.10;;;;;;5137007;27;20152;-81
2022/01/15 05:32:18;;;;;;;1.10;0.60;;;18.20;52.00;;;;;;5136950;27;20247;-82
2022/01/15 05:34:45;;;;;;;0.73;0.50;;;18.30;52.10;;;;;;5102577;27;20518;-81
2022/01/15 05:37:10;;;;;;;0.57;0.47;;;18.20;52.00;;;;;;5118485;27;20155;-81
2022/01/15 05:39:36;;;;;;;0.57;0.50;;;18.30;52.00;;;;;;5118590;27;20198;-82
2022/01/15 05:42:02;;;;;;;1.35;0.52;;;18.20;51.90;;;;;;5118638;27;20147;-82
2022/01/15 05:44:28;;;;;;;0.73;0.52;;;18.30;52.20;;;;;;5118640;27;20160;-82
2022/01/15 05:46:53;;;;;;;0.70;0.68;;;18.20;52.10;;;;;;5084344;27;20228;-82
2022/01/15 05:49:19;;;;;;;1.30;0.45;;;18.30;52.00;;;;;;5118300;27;20156;-82
2022/01/15 05:51:44;;;;;;;2.25;0.80;;;18.20;52.10;;;;;;5118065;27;20167;-82
2022/01/15 05:54:11;;;;;;;1.20;0.50;;;18.20;52.10;;;;;;5136692;27;20201;-82
2022/01/15 05:56:38;;;;;;;1.10;0.50;;;18.30;52.20;;;;;;5118266;27;20254;-82
2022/01/15 05:59:03;;;;;;;1.08;0.55;;;18.20;52.50;;;;;;5083906;27;20170;-82
2022/01/15 06:01:29;;;;;;;0.95;0.50;;;18.10;52.60;;;;;;5120191;27;20228;-82
2022/01/15 06:03:55;;;;;;;1.27;0.60;;;18.10;52.20;;;;;;5097567;28;20160;-82
2022/01/15 06:06:21;;;;;;;1.45;0.70;;;18.10;52.50;;;;;;5080803;28;20180;-82
2022/01/15 06:08:47;;;;;;;1.77;0.55;;;18.20;52.20;;;;;;5115704;28;20239;-82
2022/01/15 06:11:17;;;;;;;0.40;0.40;;;18.20;52.40;;;;;;5115606;28;20611;-82
2022/01/15 06:13:44;;;;;;;1.23;0.50;;;18.10;52.20;;;;;;5098367;28;20144;-82
2022/01/15 06:16:10;;;;;;;1.00;0.70;;;18.20;52.20;;;;;;5080710;28;20607;-82
2022/01/15 06:18:35;;;;;;;1.08;0.50;;;18.20;52.40;;;;;;5080092;28;20167;-82
2022/01/15 06:21:01;;;;;;;1.00;0.57;;;18.20;52.30;;;;;;5080403;28;20180;-82
2022/01/15 06:23:27;;;;;;;0.75;0.40;;;18.20;52.30;;;;;;5115661;28;20297;-82
2022/01/15 06:25:52;;;;;;;0.57;0.50;;;18.20;52.40;;;;;;5081048;28;20168;-82
2022/01/15 06:28:18;;;;;;;0.75;0.50;;;18.20;52.40;;;;;;5115414;28;20611;-82
2022/01/15 06:30:44;;;;;;;1.20;0.70;;;18.20;52.30;;;;;;5115309;28;20524;-82
2022/01/15 06:33:09;;;;;;;0.80;0.57;;;18.10;52.50;;;;;;5115568;28;20164;-82
2022/01/15 06:35:35;;;;;;;1.27;0.60;;;18.20;52.40;;;;;;5097078;28;20152;-82
2022/01/15 06:38:00;;;;;;;1.30;0.50;;;18.20;52.20;;;;;;5115481;28;20164;-82
2022/01/15 06:40:26;;;;;;;0.90;0.55;;;18.20;52.50;;;;;;5097050;28;20160;-82
2022/01/15 06:42:52;;;;;;;1.15;0.68;;;18.10;52.30;;;;;;5097010;28;20163;-82
2022/01/15 06:45:18;;;;;;;1.60;0.50;;;18.20;52.30;;;;;;5115241;28;20246;-82
2022/01/15 06:47:43;;;;;;;0.98;0.50;;;18.20;52.30;;;;;;5079875;28;20179;-82
2022/01/15 06:50:10;;;;;;;0.90;0.50;;;18.10;52.10;;;;;;5096843;28;20178;-82
2022/01/15 06:52:36;;;;;;;0.90;0.50;;;18.20;52.20;;;;;;5096806;28;20152;-82
2022/01/15 06:55:03;;;;;;;1.10;0.60;;;18.20;52.00;;;;;;5096763;28;20178;-82
2022/01/15 06:57:29;;;;;;;0.55;0.55;;;18.20;52.40;;;;;;5096651;28;20614;-81
2022/01/15 06:59:55;;;;;;;0.55;0.45;;;18.10;52.50;;;;;;5079579;27;20198;-82
2022/01/15 07:02:20;;;;;;;1.15;0.60;;;18.10;52.40;;;;;;5081054;28;20251;-81
2022/01/15 07:04:46;;;;;;;1.10;0.55;;;18.10;52.50;;;;;;5079820;28;20171;-81
2022/01/15 07:07:12;;;;;;;0.85;0.50;;;18.00;52.40;;;;;;5114736;28;20215;-82
2022/01/15 07:09:38;;;;;;;0.88;0.47;;;18.20;52.40;;;;;;5114751;28;20163;-82
2022/01/15 07:12:04;;;;;;;0.73;0.57;;;18.10;52.40;;;;;;5114906;28;20246;-82
2022/01/15 07:14:30;;;;;;;0.65;0.47;;;18.10;52.20;;;;;;5096276;28;20227;-82
2022/01/15 07:16:57;;;;;;;1.33;0.65;;;18.10;52.20;;;;;;5079812;28;20528;-82
2022/01/15 07:19:22;;;;;;;1.25;0.50;;;18.10;52.30;;;;;;5079549;28;20160;-82
2022/01/15 07:21:48;;;;;;;0.98;0.50;;;18.10;52.10;;;;;;5096774;28;20246;-82
2022/01/15 07:24:14;;;;;;;0.88;0.50;;;18.20;51.90;;;;;;5079310;28;20335;-82
2022/01/15 07:26:40;;;;;;;0.70;0.50;;;18.10;52.40;;;;;;5079288;28;20263;-82
2022/01/15 07:29:13;;;;;;;1.10;0.68;;;18.10;51.90;;;;;;5079170;28;20581;-82
2022/01/15 07:31:39;;;;;;;0.90;0.60;;;18.10;52.20;;;;;;5096697;28;20590;-82
2022/01/15 07:34:05;;;;;;;0.50;0.47;;;18.10;52.20;;;;;;5114197;28;20160;-82
2022/01/15 07:36:30;;;;;;;0.70;0.57;;;18.10;52.20;;;;;;5114721;28;20318;-82
2022/01/15 07:38:56;;;;;;;0.50;0.50;;;18.10;52.20;;;;;;5095950;28;20192;-82
2022/01/15 07:41:22;;;;;;;1.80;0.63;;;18.10;52.10;;;;;;5113891;28;20165;-82
2022/01/15 07:43:48;;;;;;;0.55;0.50;;;18.10;52.40;;;;;;5096322;28;20205;-81
2022/01/15 07:46:13;;;;;;;0.63;0.55;;;18.10;52.20;;;;;;5113760;28;20184;-82
2022/01/15 07:48:39;;;;;;;1.85;0.60;;;18.10;52.60;;;;;;5095671;28;20178;-81
2022/01/15 07:51:05;;;;;;;1.95;0.80;;;18.10;52.20;;;;;;5113740;28;20192;-81
2022/01/15 07:53:31;;;;;;;1.20;0.40;;;18.10;52.00;;;;;;5095863;28;20515;-82
2022/01/15 07:55:57;;;;;;;0.85;0.50;;;18.20;51.80;;;;;;5095543;28;20559;-81
2022/01/15 07:58:23;;;;;;;1.30;0.80;;;18.20;51.20;;;;;;5095540;28;20240;-81
2022/01/15 08:00:48;;;;;;;1.17;0.68;;;18.20;51.10;;;;;;5095405;28;20669;-81
2022/01/15 08:03:14;;;;;;;0.95;0.45;;;18.20;51.70;;;;;;5095490;28;20263;-81
2022/01/15 08:05:39;;;;;;;1.70;0.60;;;18.30;51.10;;;;;;5095490;28;20210;-81
2022/01/15 08:08:05;;;;;;;0.60;0.60;;;18.30;51.40;;;;;;5095381;28;20191;-82
2022/01/15 08:10:31;;;;;;;0.70;0.60;;;18.40;50.60;;;;;;5113728;28;20156;-81
2022/01/15 08:12:56;;;;;;;0.77;0.50;;;18.30;50.70;;;;;;5095596;28;20152;-81
2022/01/15 08:15:22;;;;;;;0.88;0.60;;;18.40;51.00;;;;;;5095473;28;20160;-83
2022/01/15 08:17:48;;;;;;;2.10;0.50;;;18.50;51.00;;;;;;5078611;28;20172;-82
2022/01/15 08:20:14;;;;;;;1.30;0.75;;;18.40;50.80;;;;;;5095333;28;20614;-81
2022/01/15 08:22:40;;;;;;;0.65;0.50;;;18.30;50.70;;;;;;5095365;28;20168;-81
2022/01/15 08:25:07;;;;;;;1.60;0.50;;;18.40;50.60;;;;;;5078655;28;20179;-81
2022/01/15 08:27:33;;;;;;;1.33;0.50;;;18.40;49.50;;;;;;5095405;28;20256;-82
2022/01/15 08:29:58;;;;;;;0.63;0.47;;;18.50;50.20;;;;;;5113612;28;20247;-81
2022/01/15 08:32:24;;;;;;;0.75;0.50;;;18.40;50.20;;;;;;5113528;28;20229;-80
2022/01/15 08:34:50;;;;;;;0.60;0.60;;;18.50;50.10;;;;;;5113977;28;20202;-81
2022/01/15 08:37:15;;;;;;;2.08;0.60;;;18.50;49.90;;;;;;5078518;28;20171;-80
2022/01/15 08:39:41;;;;;;;4.20;0.60;;;18.60;48.90;;;;;;5095140;28;20184;-80
2022/01/15 08:42:09;;;;;;;1.05;0.60;;;18.70;49.20;;;;;;5097467;28;20196;-80
2022/01/15 08:44:36;;;;;;;0.50;0.40;;;18.60;49.80;;;;;;5082352;28;20172;-81
2022/01/15 08:47:03;;;;;;;0.50;0.40;;;18.70;49.20;;;;;;5099761;28;20205;-81
2022/01/15 08:49:28;;;;;;;0.50;0.50;;;18.70;49.60;;;;;;5117684;28;20152;-81
2022/01/15 08:51:54;;;;;;;4.15;0.70;;;18.70;49.40;;;;;;5099133;28;20156;-83
2022/01/15 08:54:20;;;;;;;1.17;0.60;;;18.70;49.00;;;;;;5081964;28;20197;-82
2022/01/15 08:56:45;;;;;;;1.23;0.50;;;18.70;48.70;;;;;;5099239;28;20641;-82
2022/01/15 08:59:11;;;;;;;3.53;0.70;;;18.70;50.10;;;;;;5082001;28;20640;-81
2022/01/15 09:01:37;;;;;;;0.90;0.57;;;18.70;49.90;;;;;;5098741;28;20230;-81
2022/01/15 09:04:02;;;;;;;3.10;0.63;;;18.70;49.90;;;;;;5081832;28;20174;-81
2022/01/15 09:06:28;;;;;;;1.45;0.70;;;18.60;49.60;;;;;;5098661;28;20611;-81
2022/01/15 09:08:54;;;;;;;0.55;0.47;;;18.60;48.80;;;;;;5099095;28;20622;-80
2022/01/15 09:11:19;;;;;;;1.10;0.45;;;18.60;49.10;;;;;;5116868;28;20152;-80
2022/01/15 09:13:45;;;;;;;2.42;0.60;;;18.60;49.40;;;;;;5099474;28;20153;-85
2022/01/15 09:16:11;;;;;;;0.95;0.55;;;18.70;49.10;;;;;;5083198;28;20160;-85
2022/01/15 09:18:37;;;;;;;3.45;0.52;;;18.60;49.40;;;;;;5082704;28;20172;-85
2022/01/15 09:21:03;;;;;;;0.93;0.45;;;18.60;49.40;;;;;;5065244;28;20171;-86
2022/01/15 09:23:28;;;;;;;0.88;0.63;;;18.70;49.50;;;;;;5083293;28;20160;-85
2022/01/15 09:25:54;;;;;;;0.75;0.50;;;18.60;48.40;;;;;;5084138;28;20160;-84
2022/01/15 09:30:57;;;;;;;0.90;0.45;;;18.60;49.20;;;;;;5085612;28;20563;-85
2022/01/15 09:33:22;;;;;;;0.68;0.40;;;18.70;49.10;;;;;;5117947;28;20180;-86
2022/01/15 09:35:48;;;;;;;2.15;0.63;;;18.60;49.30;;;;;;5082921;28;20217;-84
2022/01/15 09:38:16;;;;;;;1.60;0.50;;;18.70;49.20;;;;;;5101516;28;20156;-84
2022/01/15 09:40:42;;;;;;;1.73;0.50;;;18.70;49.30;;;;;;5084892;28;20203;-84
2022/01/15 09:43:08;;;;;;;0.50;0.40;;;18.70;49.40;;;;;;5100120;28;20641;-85
2022/01/15 09:45:35;;;;;;;0.90;0.47;;;18.70;49.10;;;;;;5067820;28;20520;-83
2022/01/15 09:48:03;;;;;;;0.90;0.50;;;18.70;49.10;;;;;;5082984;28;20553;-83
2022/01/15 09:50:32;;;;;;;0.95;0.50;;;18.70;49.40;;;;;;5099503;28;20629;-84
2022/01/15 09:52:57;;;;;;;0.88;0.30;;;18.70;49.40;;;;;;5083788;28;20164;-86
2022/01/15 09:55:23;;;;;;;1.17;0.50;;;18.70;49.10;;;;;;5067618;28;20164;-85
2022/01/15 09:57:49;;;;;;;1.00;0.40;;;18.70;49.40;;;;;;5082338;28;20611;-83
2022/01/15 10:00:16;;;;;;;1.42;0.60;;;18.70;48.70;;;;;;5082336;28;20216;-84
2022/01/15 10:02:42;;;;;;;0.68;0.38;;;18.80;48.70;;;;;;5081644;28;20188;-82
2022/01/15 10:05:09;;;;;;;0.60;0.35;;;18.70;48.70;;;;;;5099456;28;20241;-82
2022/01/15 10:07:34;;;;;;;0.80;0.52;;;18.70;49.50;;;;;;5100589;28;20249;-83
2022/01/15 10:10:14;;;;;;;0.82;0.40;;;18.70;49.40;;;;;;5099226;28;20153;-83
2022/01/15 10:12:42;;;;;;;0.45;0.38;;;18.80;48.50;;;;;;5100376;28;20172;-83
2022/01/15 10:15:09;;;;;;;0.75;0.60;;;18.70;49.90;;;;;;5087546;28;20168;-84
2022/01/15 10:17:38;;;;;;;0.50;0.32;;;18.80;49.40;;;;;;5102087;28;20205;-85
2022/01/15 10:20:08;;;;;;;0.80;0.50;;;18.80;51.10;;;;;;5099377;28;20160;-83
2022/01/15 10:22:34;;;;;;;3.03;0.60;;;18.80;50.50;;;;;;5098989;28;20166;-84
2022/01/15 10:25:03;;;;;;;1.15;0.75;;;18.80;50.10;;;;;;5098026;28;20210;-83
2022/01/15 10:27:32;;;;;;;1.15;0.60;;;18.80;49.80;;;;;;5098242;28;20184;-83
2022/01/15 10:30:14;;;;;;;0.95;0.40;;;18.80;49.20;;;;;;5098514;28;20148;-84
2022/01/15 10:32:41;;;;;;;1.83;0.50;;;18.80;49.40;;;;;;5083675;28;20160;-84
2022/01/15 10:35:14;;;;;;;1.60;0.50;;;18.90;49.60;;;;;;5098030;28;20167;-83
2022/01/15 10:37:55;;;;;;;1.25;0.40;;;18.90;48.50;;;;;;5098684;28;20226;-84
2022/01/15 10:40:23;;;;;;;1.20;0.50;;;18.90;49.60;;;;;;5081346;28;20169;-83
2022/01/15 10:42:53;;;;;;;0.55;0.40;;;18.90;49.40;;;;;;5097667;28;20153;-84
2022/01/15 10:45:19;;;;;;;3.78;0.75;;;18.90;49.30;;;;;;5099147;28;20160;-85
2022/01/15 10:47:48;;;;;;;1.02;0.70;;;18.90;49.50;;;;;;5099377;28;20183;-84
2022/01/15 10:50:23;;;;;;;1.30;0.57;;;18.90;49.70;;;;;;5081873;28;20159;-84
2022/01/15 10:52:49;;;;;;;0.77;0.43;;;18.90;50.00;;;;;;5098192;28;20251;-84
2022/01/15 10:55:15;;;;;;;2.20;0.65;;;18.90;48.90;;;;;;5081514;28;20605;-84
2022/01/15 10:57:43;;;;;;;1.75;0.60;;;18.90;49.90;;;;;;5098393;28;20168;-85
2022/01/15 11:00:17;;;;;;;1.73;0.50;;;18.90;50.00;;;;;;5085773;27;20225;-85
2022/01/15 11:02:49;;;;;;;1.27;0.50;;;18.90;50.00;;;;;;5110898;28;20184;-85
2022/01/15 11:05:35;;;;;;;0.73;0.52;;;18.90;50.00;;;;;;5085441;28;20187;-86
2022/01/15 11:08:23;;;;;;;1.13;0.52;;;19.00;50.30;;;;;;5102545;28;20229;-84
2022/01/15 11:11:00;;;;;;;6.32;0.82;;;19.00;50.30;;;;;;5085666;28;20167;-85
2022/01/15 11:13:29;;;;;;;4.55;1.00;;;19.00;49.90;;;;;;5105252;28;20175;-84
2022/01/15 11:15:59;;;;;;;4.00;0.70;;;19.00;50.50;;;;;;5086740;28;20164;-85
2022/01/15 11:18:27;;;;;;;3.67;0.63;;;19.10;50.20;;;;;;5090353;28;20164;-85
2022/01/15 11:20:54;;;;;;;4.03;0.70;;;19.10;49.90;;;;;;5104099;28;20510;-86
2022/01/15 11:23:22;;;;;;;4.55;0.50;;;19.10;50.30;;;;;;5087733;28;20168;-86
2022/01/15 11:25:48;;;;;;;4.93;0.70;;;19.20;51.00;;;;;;5101785;28;20281;-85
2022/01/15 11:28:17;;;;;;;2.63;0.70;;;19.20;49.70;;;;;;5083981;28;20551;-85
2022/01/15 11:30:45;;;;;;;3.15;0.77;;;19.30;49.40;;;;;;5084145;28;20164;-85
2022/01/15 11:33:11;;;;;;;8.48;1.10;;;19.30;48.70;;;;;;5100037;28;20233;-83
2022/01/15 11:35:40;;;;;;;3.90;0.80;;;19.30;49.70;;;;;;5084213;28;20171;-86
2022/01/15 11:38:06;;;;;;;5.05;0.88;;;19.30;49.80;;;;;;5081317;28;20168;-85
2022/01/15 11:40:45;;;;;;;5.57;0.82;;;19.20;50.40;;;;;;5080641;28;20168;-84
2022/01/15 11:43:37;;;;;;;5.32;0.70;;;19.20;50.10;;;;;;5097330;28;20148;-85
2022/01/15 11:46:04;;;;;;;5.47;0.55;;;19.20;49.60;;;;;;5100255;28;20227;-84
2022/01/15 11:48:33;;;;;;;6.68;0.80;;;19.20;48.60;;;;;;5097753;28;20204;-85
2022/01/15 11:51:23;;;;;;;7.20;0.90;;;19.10;49.60;;;;;;5098638;28;20188;-83
2022/01/15 11:53:59;;;;;;;3.28;0.80;;;19.30;49.10;;;;;;5100880;28;20163;-84
2022/01/15 11:56:29;;;;;;;4.05;0.80;;;19.20;49.00;;;;;;5098325;28;20166;-84
2022/01/15 11:58:56;;;;;;;4.78;0.90;;;19.20;48.10;;;;;;5097747;28;20164;-84
2022/01/15 12:01:40;;;;;;;7.95;1.23;;;19.20;48.50;;;;;;5080816;28;20223;-83
2022/01/15 12:04:37;;;;;;;10.65;1.48;;;19.20;49.10;;;;;;5081267;28;20254;-83
2022/01/15 12:07:21;;;;;;;9.48;1.20;;;19.20;50.00;;;;;;5096584;28;20257;-84
2022/01/15 12:09:48;;;;;;;6.93;0.98;;;19.20;50.80;;;;;;5079741;28;20215;-84
2022/01/15 12:12:43;;;;;;;5.32;0.77;;;19.10;50.80;;;;;;5098427;28;20155;-84
2022/01/15 12:15:12;;;;;;;4.25;0.90;;;19.20;50.70;;;;;;5069308;28;20214;-84
2022/01/15 12:17:41;;;;;;;6.03;0.90;;;19.20;51.30;;;;;;5069308;28;20171;-85
2022/01/15 12:20:30;;;;;;;8.63;1.30;;;19.20;51.10;;;;;;5102863;28;20174;-85
2022/01/15 12:22:59;;;;;;;6.13;0.70;;;19.20;50.40;;;;;;5103895;28;20179;-86
2022/01/15 12:25:31;;;;;;;6.45;0.98;;;19.20;49.50;;;;;;5103633;28;20148;-85
2022/01/15 12:27:59;;;;;;;6.15;0.95;;;19.20;49.60;;;;;;5086300;28;20257;-85
2022/01/15 12:30:27;;;;;;;8.35;1.13;;;19.20;51.40;;;;;;5086905;28;20155;-86
2022/01/15 12:32:54;;;;;;;7.78;1.00;;;19.20;51.40;;;;;;5086693;28;20148;-86
2022/01/15 12:35:22;;;;;;;4.25;0.90;;;19.20;51.50;;;;;;5069977;28;20211;-85
2022/01/15 12:37:58;;;;;;;7.00;0.95;;;19.20;51.20;;;;;;5068889;28;20529;-85
2022/01/15 12:40:40;;;;;;;9.63;1.10;;;19.20;51.50;;;;;;5086983;28;20155;-85
2022/01/15 12:43:07;;;;;;;9.00;1.25;;;19.20;52.00;;;;;;5086755;28;20737;-86
2022/01/15 12:45:34;;;;;;;10.65;1.52;;;19.20;51.40;;;;;;5105018;28;20166;-86
2022/01/15 12:48:00;;;;;;;10.10;1.20;;;19.10;51.20;;;;;;5103552;28;20184;-85
2022/01/15 12:50:26;;;;;;;12.65;1.50;;;19.10;50.90;;;;;;5087500;28;20179;-86
2022/01/15 12:53:00;;;;;;;9.77;1.50;;;19.10;51.50;;;;;;5087493;28;20171;-86
2022/01/15 12:55:36;;;;;;;5.78;1.08;;;19.10;51.40;;;;;;5087649;28;20148;-87
2022/01/15 12:58:03;;;;;;;9.45;1.20;;;19.10;50.70;;;;;;5104958;28;20617;-85
2022/01/15 13:00:30;;;;;;;10.82;1.13;;;19.10;50.40;;;;;;5090506;28;20220;-87
2022/01/15 13:02:59;;;;;;;9.55;1.30;;;19.20;51.10;;;;;;5087687;28;20206;-86
2022/01/15 13:05:26;;;;;;;9.32;1.65;;;19.20;50.50;;;;;;5104618;28;20183;-86
2022/01/15 13:07:57;;;;;;;10.80;1.60;;;19.10;51.70;;;;;;5120905;28;20186;-87
2022/01/15 13:10:27;;;;;;;12.73;1.23;;;19.10;50.90;;;;;;5088051;28;20161;-85